Time;durP1;ratioP1;P1;durP2;ratioP2;P2;SDS_P1;SDS_P2;PMS_P1;PMS_P2;Temp;Humidity;BMP_temperature;BMP_pressure;BME280_temperature;BME280_humidity;BME280_pressure;Samples;Min_cycle;Max_cycle;Signal;HPM_P1;HPM_P2
2022/08/25 00:00:15;;;;;;;;;;;;;;;19.51;100.00;101827.31;5018791;28;19931;-76
2022/08/25 00:02:41;;;;;;;;;;;;;;;19.51;100.00;101830.84;5014161;28;19936;-76
2022/08/25 00:05:06;;;;;;;;;;;;;;;19.53;100.00;101828.06;5018430;28;19929;-76
2022/08/25 00:07:33;;;;;;;;;;;;;;;19.52;100.00;101826.34;5014647;28;20171;-76
2022/08/25 00:09:58;;;;;;;;;;;;;;;19.53;100.00;101822.69;5018757;28;20392;-76
2022/08/25 00:12:24;;;;;;;;;;;;;;;19.55;100.00;101818.06;5015255;28;19970;-76
2022/08/25 00:14:50;;;;;;;;;;;;;;;19.56;100.00;101819.81;5017750;28;19933;-76
2022/08/25 00:17:15;;;;;;;;;;;;;;;19.56;100.00;101821.63;5017863;28;19934;-76
2022/08/25 00:19:41;;;;;;;;;;;;;;;19.55;100.00;101815.38;4995463;28;19925;-76
2022/08/25 00:22:06;;;;;;;;;;;;;;;19.55;100.00;101815.38;5017558;28;19924;-76
2022/08/25 00:24:32;;;;;;;;;;;;;;;19.54;100.00;101813.66;5018235;28;20015;-76
2022/08/25 00:26:58;;;;;;;;;;;;;;;19.54;100.00;101814.53;5015412;28;19932;-76
2022/08/25 00:29:26;;;;;;;;;;;;;;;19.53;100.00;101812.81;5017652;28;19998;-76
2022/08/25 00:31:52;;;;;;;;;;;;;;;19.53;100.00;101812.81;4999170;28;19931;-76
2022/08/25 00:34:20;;;;;;;;;;;;;;;19.53;100.00;101820.88;4996145;28;19952;-76
2022/08/25 00:36:46;;;;;;;;;;;;;;;19.52;100.00;101819.13;5016262;28;19971;-76
2022/08/25 00:39:11;;;;;;;;;;;;;;;19.51;100.00;101814.72;5000396;28;19921;-76
2022/08/25 00:41:37;;;;;;;;;;;;;;;19.52;100.00;101820.97;5015654;28;19980;-76
2022/08/25 00:44:05;;;;;;;;;;;;;;;19.51;100.00;101819.25;4998219;28;19925;-76
2022/08/25 00:46:35;;;;;;;;;;;;;;;19.49;100.00;101830.09;4997100;28;19927;-76
2022/08/25 00:49:01;;;;;;;;;;;;;;;19.49;100.00;101826.53;5015389;28;19956;-77
2022/08/25 00:51:29;;;;;;;;;;;;;;;19.50;100.00;101822.91;4995969;28;20699;-76
2022/08/25 00:53:54;;;;;;;;;;;;;;;19.50;100.00;101817.53;4996779;28;20608;-76
2022/08/25 00:56:20;;;;;;;;;;;;;;;19.49;100.00;101815.81;5015112;28;19936;-76
2022/08/25 00:58:45;;;;;;;;;;;;;;;19.48;100.00;101820.31;4985786;28;19925;-76
2022/08/25 01:01:11;;;;;;;;;;;;;;;19.47;100.00;101815.06;5018568;28;19932;-76
2022/08/25 01:03:36;;;;;;;;;;;;;;;19.45;100.00;101808.94;5020807;28;20549;-76
2022/08/25 01:06:02;;;;;;;;;;;;;;;19.44;100.00;101812.59;5021506;28;19933;-76
2022/08/25 01:08:28;;;;;;;;;;;;;;;19.44;100.00;101812.59;5017068;28;19929;-77
2022/08/25 01:10:53;;;;;;;;;;;;;;;19.41;100.00;101813.66;5002494;28;20311;-76
2022/08/25 01:13:20;;;;;;;;;;;;;;;19.40;100.00;101811.94;5001814;28;20386;-77
2022/08/25 01:15:47;;;;;;;;;;;;;;;19.37;100.00;101807.63;5021740;28;19920;-77
2022/08/25 01:18:12;;;;;;;;;;;;;;;19.35;100.00;101803.34;5001969;28;19928;-77
2022/08/25 01:20:38;;;;;;;;;;;;;;;19.34;100.00;101804.31;5000908;28;20406;-77
2022/08/25 01:23:03;;;;;;;;;;;;;;;19.32;100.00;101801.72;5021310;28;19979;-77
2022/08/25 01:25:43;;;;;;;;;;;;;;;19.31;100.00;101805.38;5017227;28;20287;-77
2022/08/25 01:28:08;;;;;;;;;;;;;;;19.30;100.00;101800.97;5003179;28;20035;-77
2022/08/25 01:30:34;;;;;;;;;;;;;;;19.30;100.00;101795.59;5018632;28;20043;-77
2022/08/25 01:33:02;;;;;;;;;;;;;;;19.29;100.00;101799.25;5012341;28;20013;-77
2022/08/25 01:35:27;;;;;;;;;;;;;;;19.28;100.00;101797.50;5019008;28;19921;-77
2022/08/25 01:37:52;;;;;;;;;;;;;;;19.27;100.00;101799.34;5016981;28;19924;-77
2022/08/25 01:40:19;;;;;;;;;;;;;;;19.28;100.00;101805.56;5018134;28;19929;-77
2022/08/25 01:43:03;;;;;;;;;;;;;;;19.29;100.00;101803.75;5015469;28;19960;-77
2022/08/25 01:45:28;;;;;;;;;;;;;;;19.29;100.00;101803.75;5009684;28;19925;-77
2022/08/25 01:47:54;;;;;;;;;;;;;;;19.30;100.00;101800.09;5017829;28;19936;-77
2022/08/25 01:50:19;;;;;;;;;;;;;;;19.30;100.00;101795.59;5018478;28;20419;-77
2022/08/25 01:52:49;;;;;;;;;;;;;;;19.30;100.00;101800.09;5019655;28;19929;-77
2022/08/25 01:55:14;;;;;;;;;;;;;;;19.29;100.00;101790.31;4981939;28;19929;-77
2022/08/25 01:57:39;;;;;;;;;;;;;;;19.28;100.00;101781.41;4984075;28;19964;-77
2022/08/25 02:00:09;;;;;;;;;;;;;;;19.27;100.00;101790.41;5017700;28;19921;-77
2022/08/25 02:02:34;;;;;;;;;;;;;;;19.26;100.00;101777.97;5014747;28;19972;-76
2022/08/25 02:05:00;;;;;;;;;;;;;;;19.25;100.00;101787.00;5010314;28;20015;-77
2022/08/25 02:07:25;;;;;;;;;;;;;;;19.25;100.00;101776.25;5023340;28;20011;-77
2022/08/25 02:09:50;;;;;;;;;;;;;;;19.24;100.00;101769.16;5019165;28;20153;-77
2022/08/25 02:12:16;;;;;;;;;;;;;;;19.23;100.00;101767.44;5020202;28;20319;-76
2022/08/25 02:14:41;;;;;;;;;;;;;;;19.21;100.00;101764.00;5021836;28;19925;-76
2022/08/25 02:17:07;;;;;;;;;;;;;;;19.20;100.00;101762.28;5020977;28;20010;-76
2022/08/25 02:19:32;;;;;;;;;;;;;;;19.18;100.00;101769.59;5022883;28;20536;-76
2022/08/25 02:21:58;;;;;;;;;;;;;;;19.18;100.00;101772.25;5018954;28;19921;-77
2022/08/25 02:24:24;;;;;;;;;;;;;;;19.17;100.00;101766.03;5020745;28;20371;-77
2022/08/25 02:26:49;;;;;;;;;;;;;;;19.18;100.00;101774.94;4997013;28;19927;-77
2022/08/25 02:29:15;;;;;;;;;;;;;;;19.17;100.00;101767.88;5021293;28;20030;-77
2022/08/25 02:31:41;;;;;;;;;;;;;;;19.19;100.00;101771.28;5021988;28;21206;-77
2022/08/25 02:34:06;;;;;;;;;;;;;;;19.17;100.00;101770.53;5019936;28;19936;-77
2022/08/25 02:36:32;;;;;;;;;;;;;;;19.17;100.00;101774.06;5017005;28;20008;-77
2022/08/25 02:38:58;;;;;;;;;;;;;;;19.16;100.00;101772.34;5019555;28;19925;-77
2022/08/25 02:41:23;;;;;;;;;;;;;;;19.12;100.00;101771.72;5021079;28;20287;-77
2022/08/25 02:43:49;;;;;;;;;;;;;;;19.10;100.00;101773.66;5018221;28;19943;-77
2022/08/25 02:46:15;;;;;;;;;;;;;;;19.09;100.00;101773.75;5020802;28;20403;-77
2022/08/25 02:48:41;;;;;;;;;;;;;;;19.07;100.00;101773.84;5015983;28;19924;-77
2022/08/25 02:51:07;;;;;;;;;;;;;;;19.06;100.00;101774.78;5019011;28;19924;-77
2022/08/25 02:53:33;;;;;;;;;;;;;;;19.04;100.00;101779.41;5009731;28;19928;-77
2022/08/25 02:55:58;;;;;;;;;;;;;;;19.04;100.00;101770.50;5020965;28;19929;-77
2022/08/25 02:58:24;;;;;;;;;;;;;;;19.01;100.00;101766.16;5019815;28;19925;-77
2022/08/25 03:00:50;;;;;;;;;;;;;;;19.01;100.00;101768.84;5002541;28;19932;-77
2022/08/25 03:03:15;;;;;;;;;;;;;;;18.99;100.00;101770.78;5017404;28;19925;-77
2022/08/25 03:05:41;;;;;;;;;;;;;;;18.94;100.00;101763.03;5031281;28;19964;-77
2022/08/25 03:08:07;;;;;;;;;;;;;;;18.91;100.00;101768.59;5000389;28;19960;-77
2022/08/25 03:10:33;;;;;;;;;;;;;;;18.90;100.00;101763.34;5012216;28;20211;-78
2022/08/25 03:12:58;;;;;;;;;;;;;;;18.88;100.00;101758.06;5020746;28;19920;-77
2022/08/25 03:15:26;;;;;;;;;;;;;;;18.85;100.00;101759.13;5014682;28;20401;-76
2022/08/25 03:17:52;;;;;;;;;;;;;;;18.84;100.00;101757.44;5032440;28;19998;-77
2022/08/25 03:20:18;;;;;;;;;;;;;;;18.83;100.00;101757.53;5033308;28;20288;-77
2022/08/25 03:22:43;;;;;;;;;;;;;;;18.81;100.00;101751.41;5018475;28;19920;-76
2022/08/25 03:27:53;;;;;;;;;;;;;;;18.76;100.00;101740.09;5031279;28;19924;-77
2022/08/25 03:30:18;;;;;;;;;;;;;;;18.75;100.00;101747.31;5033666;28;19924;-76
2022/08/25 03:32:44;;;;;;;;;;;;;;;18.75;100.00;101741.94;5020182;28;19929;-76
2022/08/25 03:35:09;;;;;;;;;;;;;;;18.75;100.00;101741.06;5021229;28;20018;-76
2022/08/25 03:37:35;;;;;;;;;;;;;;;18.72;100.00;101743.00;5018216;28;20525;-77
2022/08/25 03:40:02;;;;;;;;;;;;;;;18.72;100.00;101731.41;5018449;28;20559;-76
2022/08/25 03:42:27;;;;;;;;;;;;;;;18.71;100.00;101740.41;5018659;28;19927;-76
2022/08/25 03:44:53;;;;;;;;;;;;;;;18.69;100.00;101735.16;5018261;28;19921;-77
2022/08/25 03:47:19;;;;;;;;;;;;;;;18.68;100.00;101733.44;5019078;28;20977;-76
2022/08/25 03:49:44;;;;;;;;;;;;;;;18.66;100.00;101738.06;5001325;28;19975;-75
2022/08/25 03:52:09;;;;;;;;;;;;;;;18.65;100.00;101735.47;5019227;28;20331;-75
2022/08/25 03:54:35;;;;;;;;;;;;;;;18.63;99.60;101729.34;5017854;28;20279;-78
2022/08/25 03:57:00;;;;;;;;;;;;;;;18.63;99.30;101729.34;5031610;28;20016;-76
2022/08/25 03:59:26;;;;;;;;;;;;;;;18.63;99.51;101723.97;5034405;28;20355;-78
2022/08/25 04:01:51;;;;;;;;;;;;;;;18.62;99.35;101719.59;5018588;28;20019;-76
2022/08/25 04:04:17;;;;;;;;;;;;;;;18.62;98.92;101719.59;4996185;28;20019;-76
2022/08/25 04:06:42;;;;;;;;;;;;;;;18.61;98.43;101717.88;4983136;28;19927;-77
2022/08/25 04:09:08;;;;;;;;;;;;;;;18.61;98.53;101724.06;5013454;28;19921;-76
2022/08/25 04:11:34;;;;;;;;;;;;;;;18.61;98.81;101728.59;5019021;28;20427;-76
2022/08/25 04:14:01;;;;;;;;;;;;;;;18.59;98.60;101726.84;4997754;28;19925;-77
2022/08/25 04:16:30;;;;;;;;;;;;;;;18.58;98.44;101727.81;4966041;28;19963;-76
2022/08/25 04:18:56;;;;;;;;;;;;;;;18.58;98.37;101724.28;5011396;28;20426;-77
2022/08/25 04:21:22;;;;;;;;;;;;;;;18.57;98.12;101720.75;4998613;28;19920;-76
2022/08/25 04:23:47;;;;;;;;;;;;;;;18.57;97.95;101726.09;4999222;28;20696;-76
2022/08/25 04:26:18;;;;;;;;;;;;;;;18.58;97.41;101726.97;5003008;28;19928;-77
2022/08/25 04:28:44;;;;;;;;;;;;;;;18.57;97.49;101723.41;4997092;28;20382;-77
2022/08/25 04:31:10;;;;;;;;;;;;;;;18.57;97.13;101717.19;5013446;28;19921;-77
2022/08/25 04:33:36;;;;;;;;;;;;;;;18.56;96.94;101715.47;5018933;28;21283;-77
2022/08/25 04:36:03;;;;;;;;;;;;;;;18.56;96.60;101719.03;5002371;28;19928;-76
2022/08/25 04:38:29;;;;;;;;;;;;;;;18.57;96.81;101718.06;5021602;28;19925;-77
2022/08/25 04:40:58;;;;;;;;;;;;;;;18.58;97.17;101708.22;5022647;28;19929;-77
2022/08/25 04:43:24;;;;;;;;;;;;;;;18.59;97.10;101704.56;5003734;28;20409;-76
2022/08/25 04:45:49;;;;;;;;;;;;;;;18.56;96.71;101705.63;5018342;28;19928;-76
2022/08/25 04:48:15;;;;;;;;;;;;;;;18.55;96.67;101711.06;5003152;28;20372;-76
2022/08/25 04:50:40;;;;;;;;;;;;;;;18.55;96.26;101705.72;5005941;28;19929;-77
2022/08/25 04:53:05;;;;;;;;;;;;;;;18.54;96.85;101702.19;5024316;28;19929;-77
2022/08/25 04:55:31;;;;;;;;;;;;;;;18.54;96.43;101709.34;5021959;28;19932;-77
2022/08/25 04:57:56;;;;;;;;;;;;;;;18.53;96.31;101707.63;5020350;28;19928;-76
2022/08/25 05:00:22;;;;;;;;;;;;;;;18.52;96.40;101701.41;5022914;28;20311;-77
2022/08/25 05:02:48;;;;;;;;;;;;;;;18.52;96.37;101705.94;5023583;28;20387;-77
2022/08/25 05:05:13;;;;;;;;;;;;;;;18.52;96.08;101711.28;5016524;28;20019;-77
2022/08/25 05:07:39;;;;;;;;;;;;;;;18.52;96.12;101709.44;5021838;28;20290;-77
2022/08/25 05:10:04;;;;;;;;;;;;;;;18.51;96.16;101707.72;5023170;28;19957;-76
2022/08/25 05:12:30;;;;;;;;;;;;;;;18.52;96.02;101706.75;5019549;28;20512;-76
2022/08/25 05:15:48;;;;;;;;;;;;;;;18.52;96.28;101700.56;5020918;28;19968;-77
2022/08/25 05:17:41;;;;;;;;;;;;;;;18.52;96.09;101698.72;5023257;28;19929;-77
2022/08/25 05:20:06;;;;;;;;;;;;;;;18.53;95.74;101708.47;5022463;28;20347;-77
2022/08/25 05:22:32;;;;;;;;;;;;;;;18.54;96.12;101712.03;5021529;28;19929;-77
2022/08/25 05:24:57;;;;;;;;;;;;;;;18.56;96.17;101718.16;5023060;28;20006;-77
2022/08/25 05:27:22;;;;;;;;;;;;;;;18.55;95.44;101703.91;5022828;28;19935;-76
2022/08/25 05:29:48;;;;;;;;;;;;;;;18.57;95.02;101709.13;5022067;28;19936;-76
2022/08/25 05:32:13;;;;;;;;;;;;;;;18.58;94.93;101713.56;5020165;28;20392;-76
2022/08/25 05:34:39;;;;;;;;;;;;;;;18.61;94.92;101709.81;5017189;28;20047;-76
2022/08/25 05:37:04;;;;;;;;;;;;;;;18.63;95.24;101706.06;5018435;28;19936;-76
2022/08/25 05:39:31;;;;;;;;;;;;;;;18.65;94.60;101708.66;5001849;28;20448;-77
2022/08/25 05:41:56;;;;;;;;;;;;;;;18.67;94.37;101717.44;5017059;28;19991;-77
2022/08/25 05:44:22;;;;;;;;;;;;;;;18.69;94.04;101715.53;5016805;28;20039;-77
2022/08/25 05:46:47;;;;;;;;;;;;;;;18.72;94.19;101721.56;5018739;28;20287;-86
2022/08/25 05:49:12;;;;;;;;;;;;;;;18.76;93.99;101722.22;5022693;28;19925;-90
2022/08/25 05:51:38;;;;;;;;;;;;;;;18.79;94.17;101719.31;5022662;28;19928;-87
2022/08/25 05:54:04;;;;;;;;;;;;;;;18.82;93.87;101718.25;5023382;28;19925;-87
2022/08/25 05:56:30;;;;;;;;;;;;;;;18.86;93.51;101717.94;5021705;28;20306;-87
2022/08/25 05:58:55;;;;;;;;;;;;;;;18.93;93.45;101717.53;5013254;28;20299;-86
2022/08/25 06:04:06;;;;;;;;;;;;;;;19.02;92.68;101721.41;5021556;28;19925;-84
2022/08/25 06:06:32;;;;;;;;;;;;;;;19.06;92.83;101723.81;5023445;28;19948;-89
2022/08/25 06:08:57;;;;;;;;;;;;;;;19.11;92.38;101721.69;5022604;28;19922;-85
2022/08/25 06:11:23;;;;;;;;;;;;;;;19.18;92.17;101715.91;5021867;28;20003;-86
2022/08/25 06:13:48;;;;;;;;;;;;;;;19.24;92.23;101710.97;5005402;28;20015;-85
2022/08/25 06:16:14;;;;;;;;;;;;;;;19.31;92.20;101715.91;5022438;28;19939;-87
2022/08/25 06:18:39;;;;;;;;;;;;;;;19.38;91.79;101711.81;5026416;28;20331;-87
2022/08/25 06:21:12;;;;;;;;;;;;;;;19.45;91.80;101713.13;5025115;28;19975;-84
2022/08/25 06:23:37;;;;;;;;;;;;;;;19.57;91.75;101714.13;5002537;28;19936;-83
2022/08/25 06:26:02;;;;;;;;;;;;;;;19.77;91.60;101727.97;5023210;28;21291;-85
2022/08/25 06:28:28;;;;;;;;;;;;;;;20.00;91.55;101714.75;5014296;28;19928;-83
2022/08/25 06:30:56;;;;;;;;;;;;;;;20.21;90.60;101721.25;5022709;28;19925;-85
2022/08/25 06:33:22;;;;;;;;;;;;;;;20.38;89.35;101708.41;5022933;28;19920;-87
2022/08/25 06:35:47;;;;;;;;;;;;;;;20.54;88.92;101710.78;5020150;28;19928;-85
2022/08/25 06:38:13;;;;;;;;;;;;;;;20.70;88.82;101709.66;5020770;28;19928;-84
2022/08/25 06:40:39;;;;;;;;;;;;;;;20.84;87.45;101716.72;5022358;28;19929;-85
2022/08/25 06:43:07;;;;;;;;;;;;;;;20.98;87.19;101718.38;5020034;28;21727;-86
2022/08/25 06:45:33;;;;;;;;;;;;;;;21.13;86.41;101721.72;5026261;28;21574;-87
2022/08/25 06:47:58;;;;;;;;;;;;;;;21.23;85.90;101728.09;5004099;28;19924;-87
2022/08/25 06:50:24;;;;;;;;;;;;;;;21.35;85.40;101720.91;5021343;28;21882;-87
2022/08/25 06:52:50;;;;;;;;;;;;;;;21.49;84.57;101727.03;5021288;28;19936;-87
2022/08/25 06:55:16;;;;;;;;;;;;;;;21.60;84.42;101723.50;5021355;28;19929;-86
2022/08/25 06:57:41;;;;;;;;;;;;;;;21.69;83.23;101728.22;5024923;28;19920;-88
2022/08/25 07:00:09;;;;;;;;;;;;;;;21.80;83.72;101725.50;5019962;28;19925;-87
2022/08/25 07:02:35;;;;;;;;;;;;;;;21.96;83.75;101718.91;5022046;28;20063;-88
2022/08/25 07:05:00;;;;;;;;;;;;;;;22.09;82.94;101718.75;5032712;28;20391;-88
2022/08/25 07:07:26;;;;;;;;;;;;;;;22.19;82.93;101719.75;5036973;28;19925;-92
2022/08/25 07:09:51;;;;;;;;;;;;;;;22.28;81.79;101717.28;5022585;28;20335;-91
2022/08/25 07:12:16;;;;;;;;;;;;;;;22.34;81.49;101712.22;5029058;28;19921;-90
2022/08/25 07:14:43;;;;;;;;;;;;;;;22.43;81.51;101724.09;5022462;28;20048;-91
2022/08/25 07:17:08;;;;;;;;;;;;;;;22.54;81.41;101723.22;5040498;28;20808;-90
2022/08/25 07:19:34;;;;;;;;;;;;;;;22.62;81.91;101718.03;5025592;28;19921;-84
2022/08/25 07:21:59;;;;;;;;;;;;;;;22.71;80.61;101713.72;5034792;28;20287;-92
2022/08/25 07:24:26;;;;;;;;;;;;;;;22.81;81.07;101713.81;5028021;28;20368;-84
2022/08/25 07:26:51;;;;;;;;;;;;;;;22.88;80.41;101717.69;5015301;28;19936;-82
2022/08/25 07:29:18;;;;;;;;;;;;;;;22.96;80.67;101714.38;5026011;28;19925;-81
2022/08/25 07:31:44;;;;;;;;;;;;;;;23.03;80.93;101725.47;5018620;28;20375;-80
2022/08/25 07:36:55;;;;;;;;;;;;;;;23.17;80.24;101721.63;5006346;28;20427;-92
2022/08/25 07:39:21;;;;;;;;;;;;;;;23.25;80.06;101726.38;5027118;28;19929;-85
2022/08/25 07:41:46;;;;;;;;;;;;;;;23.33;79.95;101724.72;5027123;28;19967;-87
2022/08/25 07:44:12;;;;;;;;;;;;;;;23.38;78.77;101729.75;5027928;28;19931;-85
2022/08/25 07:46:37;;;;;;;;;;;;;;;23.45;79.30;101728.22;5029540;28;19924;-88
2022/08/25 07:49:04;;;;;;;;;;;;;;;23.52;79.06;101733.09;5037250;28;19927;-86
2022/08/25 07:51:29;;;;;;;;;;;;;;;23.60;78.36;101730.59;5036732;28;19936;-86
2022/08/25 07:53:55;;;;;;;;;;;;;;;23.65;78.74;101728.34;5029072;28;20498;-86
2022/08/25 07:56:21;;;;;;;;;;;;;;;23.71;79.18;101725.06;5027136;28;19920;-85
2022/08/25 07:58:46;;;;;;;;;;;;;;;23.82;78.25;101734.97;5023543;28;19975;-85
2022/08/25 08:01:12;;;;;;;;;;;;;;;23.97;79.08;101738.13;5029451;28;19948;-85
2022/08/25 08:03:38;;;;;;;;;;;;;;;24.12;78.10;101735.94;5029005;28;20383;-84
2022/08/25 08:06:08;;;;;;;;;;;;;;;24.21;77.28;101726.16;5018911;28;19928;-83
2022/08/25 08:08:35;;;;;;;;;;;;;;;24.37;77.57;101733.72;5017371;28;19964;-82
2022/08/25 08:11:00;;;;;;;;;;;;;;;24.51;76.66;101729.75;5020699;28;19925;-81
2022/08/25 08:13:26;;;;;;;;;;;;;;;24.66;76.28;101723.91;5020951;28;19925;-82
2022/08/25 08:15:52;;;;;;;;;;;;;;;24.86;75.89;101722.13;5019328;28;19925;-82
2022/08/25 08:18:17;;;;;;;;;;;;;;;25.00;74.50;101718.09;5016240;28;20031;-81
2022/08/25 08:20:44;;;;;;;;;;;;;;;25.13;73.78;101714.25;5029082;28;19921;-80
2022/08/25 08:23:10;;;;;;;;;;;;;;;25.26;73.66;101717.50;5032213;28;19913;-82
2022/08/25 08:25:35;;;;;;;;;;;;;;;25.39;72.95;101719.03;5014158;28;19936;-81
2022/08/25 08:28:01;;;;;;;;;;;;;;;25.54;74.23;101714.88;5001301;28;19925;-81
2022/08/25 08:30:26;;;;;;;;;;;;;;;25.68;71.87;101715.41;5014629;28;19995;-81
2022/08/25 08:33:01;;;;;;;;;;;;;;;25.82;70.96;101712.19;5016439;28;19990;-80
2022/08/25 08:35:26;;;;;;;;;;;;;;;25.97;71.91;101714.44;5014248;28;19928;-82
2022/08/25 08:37:51;;;;;;;;;;;;;;;26.12;70.44;101706.63;5013255;28;19931;-81
2022/08/25 08:40:17;;;;;;;;;;;;;;;26.32;70.68;101701.97;4999565;28;19925;-81
2022/08/25 08:42:45;;;;;;;;;;;;;;;26.46;70.18;101702.44;5013397;28;19928;-82
2022/08/25 08:45:20;;;;;;;;;;;;;;;26.59;69.29;101700.19;5011273;28;19951;-83
2022/08/25 08:48:04;;;;;;;;;;;;;;;26.76;69.09;101700.34;5018962;28;19928;-81
2022/08/25 08:50:45;;;;;;;;;;;;;;;26.88;68.25;101690.94;5013779;28;19924;-87
2022/08/25 08:53:13;;;;;;;;;;;;;;;27.02;66.94;101685.97;5015113;28;19971;-81
2022/08/25 08:55:41;;;;;;;;;;;;;;;27.10;66.90;101689.59;5019842;28;20674;-85
2022/08/25 08:58:10;;;;;;;;;;;;;;;27.23;66.39;101688.34;5023643;28;19960;-87
2022/08/25 09:00:41;;;;;;;;;;;;;;;27.35;66.17;101681.59;5033921;28;19932;-84
2022/08/25 09:03:07;;;;;;;;;;;;;;;27.46;65.82;101683.19;5017065;28;19920;-84
2022/08/25 09:05:35;;;;;;;;;;;;;;;27.60;66.33;101678.19;5034228;28;19928;-87
2022/08/25 09:08:05;;;;;;;;;;;;;;;27.73;64.55;101675.03;5033566;28;19931;-82
2022/08/25 09:10:34;;;;;;;;;;;;;;;27.87;65.14;101673.53;5019164;28;19952;-83
2022/08/25 09:12:59;;;;;;;;;;;;;;;27.97;63.46;101662.50;5014700;28;19920;-82
2022/08/25 09:18:38;;;;;;;;;;;;;;;28.30;63.90;101657.16;5022134;28;20674;-82
2022/08/25 09:21:07;;;;;;;;;;;;;;;28.41;62.69;101653.28;5020556;28;19921;-83
2022/08/25 09:23:49;;;;;;;;;;;;;;;28.54;62.91;101650.91;5017219;28;19980;-82
2022/08/25 09:26:24;;;;;;;;;;;;;;;28.60;63.50;101643.94;5038552;28;20433;-82
2022/08/25 09:29:11;;;;;;;;;;;;;;;28.69;61.50;101652.94;5007463;28;19925;-82
2022/08/25 09:31:37;;;;;;;;;;;;;;;28.76;61.27;101645.78;5016231;28;20155;-81
2022/08/25 09:34:04;;;;;;;;;;;;;;;28.79;60.76;101645.44;5037501;28;19927;-82
2022/08/25 09:36:30;;;;;;;;;;;;;;;28.85;60.15;101644.78;5022125;28;19987;-83
2022/08/25 09:38:56;;;;;;;;;;;;;;;28.96;61.52;101637.28;5021812;28;20605;-82
2022/08/25 09:41:57;;;;;;;;;;;;;;;29.04;63.71;101637.28;5023542;28;19929;-82
2022/08/25 09:44:25;;;;;;;;;;;;;;;29.06;59.04;101635.22;4997403;28;20443;-83
2022/08/25 09:47:14;;;;;;;;;;;;;;;29.09;58.24;101631.31;5023429;28;19960;-83
2022/08/25 09:49:40;;;;;;;;;;;;;;;29.13;57.04;101633.50;5017766;28;19941;-83
2022/08/25 09:52:36;;;;;;;;;;;;;;;29.20;61.80;101630.91;5021577;28;19925;-83
2022/08/25 09:55:21;;;;;;;;;;;;;;;29.29;58.97;101629.00;5016166;28;20002;-83
2022/08/25 09:57:48;;;;;;;;;;;;;;;29.34;59.23;101620.31;5007836;28;20904;-83
2022/08/25 10:00:13;;;;;;;;;;;;;;;29.40;58.16;101630.50;5021184;28;19927;-83
2022/08/25 10:02:40;;;;;;;;;;;;;;;29.41;60.30;101627.63;5018451;28;19925;-84
2022/08/25 10:05:34;;;;;;;;;;;;;;;29.38;58.59;101625.25;5020620;28;21290;-84
2022/08/25 10:08:19;;;;;;;;;;;;;;;29.31;57.65;101609.75;5019546;28;19921;-84
2022/08/25 10:10:46;;;;;;;;;;;;;;;29.25;58.12;101608.59;4991656;28;20350;-84
2022/08/25 10:13:13;;;;;;;;;;;;;;;29.21;60.64;101609.97;5000971;28;19921;-84
2022/08/25 10:15:38;;;;;;;;;;;;;;;29.14;58.79;101609.84;5012828;28;19925;-83
2022/08/25 10:18:23;;;;;;;;;;;;;;;29.05;56.98;101611.72;5020444;28;20420;-84
2022/08/25 10:21:03;;;;;;;;;;;;;;;29.04;56.47;101603.72;5013377;28;20019;-83
2022/08/25 10:23:29;;;;;;;;;;;;;;;29.00;50.30;101598.63;5020322;28;19929;-83
2022/08/25 10:25:54;;;;;;;;;;;;;;;29.07;48.11;101598.75;5020624;28;19925;-83
2022/08/25 10:28:28;;;;;;;;;;;;;;;29.13;53.32;101598.06;5019972;28;19925;-82
2022/08/25 10:31:00;;;;;;;;;;;;;;;29.10;47.37;101592.13;4993298;28;20047;-84
2022/08/25 10:33:44;;;;;;;;;;;;;;;29.14;48.94;101588.03;5017877;28;20540;-86
2022/08/25 10:36:13;;;;;;;;;;;;;;;29.18;46.13;101583.06;5012907;28;19925;-85
2022/08/25 10:38:46;;;;;;;;;;;;;;;29.17;44.52;101593.13;5001744;28;19921;-85
2022/08/25 10:41:35;;;;;;;;;;;;;;;29.22;45.15;101584.41;4999036;28;19925;-84
2022/08/25 10:44:05;;;;;;;;;;;;;;;29.25;45.29;101582.16;5011164;28;20693;-85
2022/08/25 10:47:04;;;;;;;;;;;;;;;29.32;45.25;101586.91;5006993;28;19925;-83
2022/08/25 10:49:32;;;;;;;;;;;;;;;29.36;44.33;101586.38;4956112;28;19941;-86
2022/08/25 10:52:02;;;;;;;;;;;;;;;29.33;42.49;101572.25;5011336;28;20380;-85
2022/08/25 10:54:41;;;;;;;;;;;;;;;29.35;45.82;101572.94;5007157;28;20322;-86
2022/08/25 10:57:12;;;;;;;;;;;;;;;29.30;44.96;101559.00;5002366;28;19960;-85
2022/08/25 10:59:46;;;;;;;;;;;;;;;29.27;46.57;101562.91;5017784;28;20039;-85
2022/08/25 11:02:30;;;;;;;;;;;;;;;29.24;45.74;101563.28;5002160;28;19925;-86
2022/08/25 11:05:05;;;;;;;;;;;;;;;29.23;46.54;101547.94;4999987;28;20711;-85
2022/08/25 11:07:47;;;;;;;;;;;;;;;29.23;48.16;101550.66;5019665;28;19931;-84
2022/08/25 11:10:21;;;;;;;;;;;;;;;29.12;49.79;101544.59;5016622;28;20335;-84
2022/08/25 11:12:49;;;;;;;;;;;;;;;29.08;49.23;101551.41;5015260;28;20376;-86
2022/08/25 11:15:28;;;;;;;;;;;;;;;29.02;49.43;101537.66;5017179;28;19936;-86
2022/08/25 11:17:58;;;;;;;;;;;;;;;28.99;49.14;101542.41;5016301;28;20743;-84
2022/08/25 11:20:27;;;;;;;;;;;;;;;29.06;47.83;101548.00;5003108;28;20444;-84
2022/08/25 11:22:58;;;;;;;;;;;;;;;29.11;47.59;101542.03;5017220;28;20617;-86
2022/08/25 11:25:33;;;;;;;;;;;;;;;29.16;50.03;101539.63;5016807;28;20361;-85
2022/08/25 11:28:09;;;;;;;;;;;;;;;29.08;48.04;101542.41;5016071;28;19936;-76
2022/08/25 11:30:34;;;;;;;;;;;;;;;29.10;47.12;101543.06;5018447;28;19925;-76
2022/08/25 11:33:00;;;;;;;;;;;;;;;29.14;48.42;101537.06;5014796;28;20029;-76
2022/08/25 11:35:37;;;;;;;;;;;;;;;29.17;49.14;101535.00;5017413;28;20422;-76
2022/08/25 11:38:03;;;;;;;;;;;;;;;29.20;48.23;101532.78;5017049;28;19920;-76
2022/08/25 11:40:31;;;;;;;;;;;;;;;29.25;46.66;101530.38;5019362;28;19925;-76
2022/08/25 11:43:05;;;;;;;;;;;;;;;29.34;45.72;101523.03;5014886;28;19924;-76
2022/08/25 11:45:39;;;;;;;;;;;;;;;29.44;45.85;101527.38;5017179;28;20363;-75
2022/08/25 11:48:11;;;;;;;;;;;;;;;29.39;46.79;101525.19;5011505;28;19979;-84
2022/08/25 11:50:57;;;;;;;;;;;;;;;29.37;46.56;101522.66;5010451;28;19921;-81
2022/08/25 11:53:30;;;;;;;;;;;;;;;29.46;46.94;101530.81;5009112;28;19928;-94
2022/08/25 11:56:09;;;;;;;;;;;;;;;29.46;48.08;101525.34;5021863;28;19952;-95
2022/08/25 11:58:42;;;;;;;;;;;;;;;29.39;49.06;101519.75;5027401;28;19948;-80
2022/08/25 12:01:10;;;;;;;;;;;;;;;29.32;48.50;101522.34;5017550;28;19925;-79
2022/08/25 12:03:35;;;;;;;;;;;;;;;29.30;48.33;101518.94;5017072;28;19921;-79
2022/08/25 12:06:16;;;;;;;;;;;;;;;29.36;46.24;101520.13;5025831;28;19921;-80
2022/08/25 12:08:50;;;;;;;;;;;;;;;29.51;47.16;101517.50;5019358;28;19984;-80
2022/08/25 12:11:35;;;;;;;;;;;;;;;29.62;47.26;101514.38;5019637;28;20379;-79
2022/08/25 12:14:09;;;;;;;;;;;;;;;29.72;47.75;101507.84;5032056;28;21598;-80
2022/08/25 12:16:34;;;;;;;;;;;;;;;29.74;44.19;101503.03;5035381;28;19998;-79
2022/08/25 12:19:19;;;;;;;;;;;;;;;29.82;43.24;101502.97;5035144;28;21311;-79
2022/08/25 12:21:44;;;;;;;;;;;;;;;29.90;43.91;101500.19;5032714;28;19925;-79
2022/08/25 12:24:11;;;;;;;;;;;;;;;29.99;43.85;101497.38;5018430;28;19925;-79
2022/08/25 12:26:43;;;;;;;;;;;;;;;30.03;43.26;101498.72;5014639;28;20398;-78
2022/08/25 12:29:28;;;;;;;;;;;;;;;30.03;44.17;101493.25;5031141;28;19920;-79
2022/08/25 12:32:05;;;;;;;;;;;;;;;30.01;44.08;101489.88;5013817;28;19925;-79
2022/08/25 12:34:41;;;;;;;;;;;;;;;30.07;44.66;101492.72;5031621;28;19940;-79
2022/08/25 12:37:12;;;;;;;;;;;;;;;30.05;43.09;101488.44;5016790;28;19932;-79
2022/08/25 12:39:42;;;;;;;;;;;;;;;30.09;42.57;101492.56;5013966;28;20544;-79
2022/08/25 12:42:17;;;;;;;;;;;;;;;30.10;41.13;101496.97;5029372;28;19920;-80
2022/08/25 12:44:46;;;;;;;;;;;;;;;30.09;43.32;101487.09;5029703;28;20360;-80
2022/08/25 12:47:18;;;;;;;;;;;;;;;30.00;43.58;101488.19;5016621;28;19925;-79
2022/08/25 12:49:43;;;;;;;;;;;;;;;29.89;41.98;101482.09;5030036;28;20328;-79